createdAt,value
2019-03-31T00:02:25.059Z,102315.16
2019-03-31T00:04:56.137Z,102322.52
2019-03-31T00:07:27.272Z,102329.92
2019-03-31T00:09:58.248Z,102329.43
2019-03-31T00:12:32.197Z,102328.55
2019-03-31T00:15:03.249Z,102327.31
2019-03-31T00:17:34.361Z,102333.36
2019-03-31T00:20:06.553Z,102330.90
2019-03-31T00:22:37.660Z,102333.09
2019-03-31T00:25:08.953Z,102334.03
2019-03-31T00:27:42.596Z,102334.80
2019-03-31T00:30:13.719Z,102338.22
2019-03-31T00:32:44.921Z,102337.25
2019-03-31T00:35:16.815Z,102341.92
2019-03-31T00:37:47.793Z,102338.34
2019-03-31T00:40:18.861Z,102334.72
2019-03-31T00:42:49.836Z,102346.34
2019-03-31T00:45:23.241Z,102350.56
2019-03-31T00:47:54.231Z,102353.56
2019-03-31T00:50:25.256Z,102357.36
2019-03-31T00:52:56.457Z,102347.84
2019-03-31T00:55:27.344Z,102347.05
2019-03-31T00:57:58.370Z,102351.56
2019-03-31T01:00:47.860Z,102356.13
2019-03-31T01:03:20.742Z,102355.39
2019-03-31T01:05:51.954Z,102366.37
2019-03-31T01:08:23.322Z,102363.91
2019-03-31T01:10:54.378Z,102364.88
2019-03-31T01:13:25.368Z,102367.61
2019-03-31T01:15:59.090Z,102372.05
2019-03-31T01:18:30.130Z,102369.07
2019-03-31T01:21:01.111Z,102366.55
2019-03-31T01:23:32.192Z,102364.88
2019-03-31T01:26:03.323Z,102368.43
2019-03-31T01:28:34.497Z,102375.05
2019-03-31T01:31:05.651Z,102374.23
2019-03-31T01:33:36.773Z,102377.79
2019-03-31T01:36:09.591Z,102380.41
2019-03-31T01:38:45.856Z,102375.63
2019-03-31T01:41:17.010Z,102381.38
2019-03-31T01:43:47.979Z,102383.69
2019-03-31T01:46:24.890Z,102381.59
2019-03-31T01:48:58.483Z,102383.77
2019-03-31T01:51:29.552Z,102389.49
2019-03-31T01:54:07.280Z,102392.20
2019-03-31T01:56:38.406Z,102394.81
2019-03-31T01:59:09.338Z,102389.16
2019-03-31T02:01:40.396Z,102389.16
2019-03-31T02:04:16.396Z,102390.52
2019-03-31T02:06:47.727Z,102394.08
2019-03-31T02:09:21.636Z,102391.48
2019-03-31T02:11:52.852Z,102387.68
2019-03-31T02:14:27.949Z,102394.25
2019-03-31T02:16:58.963Z,102385.95
2019-03-31T02:19:31.787Z,102387.70
2019-03-31T02:22:04.117Z,102397.78
2019-03-31T02:24:38.227Z,102395.95
2019-03-31T02:27:13.843Z,102403.80
2019-03-31T02:29:44.823Z,102399.91
2019-03-31T02:32:24.187Z,102403.04
2019-03-31T02:34:48.631Z,102404.41
2019-03-31T02:37:19.671Z,102408.39
2019-03-31T02:39:50.710Z,102403.98
2019-03-31T02:42:23.902Z,102402.67
2019-03-31T02:44:56.822Z,102399.88
2019-03-31T02:47:27.902Z,102397.34
2019-03-31T02:50:00.853Z,102405.70
2019-03-31T02:52:32.059Z,102401.94
2019-03-31T02:55:03.271Z,102396.16
2019-03-31T02:57:34.782Z,102395.09
2019-03-31T03:00:07.030Z,102400.66
2019-03-31T03:02:42.259Z,102406.77
2019-03-31T03:05:20.265Z,102401.63
2019-03-31T03:07:50.890Z,102397.20
2019-03-31T03:10:22.960Z,102411.45
2019-03-31T03:12:54.988Z,102410.73
2019-03-31T03:15:45.290Z,102412.98
2019-03-31T03:18:16.313Z,102408.23
2019-03-31T03:20:47.263Z,102409.12
2019-03-31T03:23:18.329Z,102404.86
2019-03-31T03:25:56.498Z,102408.84
2019-03-31T03:28:23.732Z,102417.11
2019-03-31T03:30:54.794Z,102420.09
2019-03-31T03:33:26.158Z,102428.89
2019-03-31T03:35:57.212Z,102431.56
2019-03-31T03:38:28.478Z,102434.63
2019-03-31T03:40:59.615Z,102432.08
2019-03-31T03:43:30.779Z,102441.69
2019-03-31T03:46:01.979Z,102441.23
2019-03-31T03:48:35.700Z,102439.05
2019-03-31T03:51:07.927Z,102438.12
2019-03-31T03:53:39.067Z,102438.62
2019-03-31T03:56:12.508Z,102435.58
2019-03-31T03:58:45.631Z,102442.54
2019-03-31T04:01:21.790Z,102438.12
2019-03-31T04:03:52.850Z,102436.37
2019-03-31T04:06:25.652Z,102435.85
2019-03-31T04:08:56.695Z,102434.03
2019-03-31T04:11:29.050Z,102439.56
2019-03-31T04:14:00.456Z,102438.55
2019-03-31T04:16:34.361Z,102437.16
2019-03-31T04:19:05.583Z,102443.59
2019-03-31T04:21:36.654Z,102441.77
2019-03-31T04:24:07.771Z,102443.31
2019-03-31T04:26:38.918Z,102443.16
2019-03-31T04:29:12.447Z,102453.58
2019-03-31T04:31:43.417Z,102454.89
2019-03-31T04:34:14.507Z,102457.89
2019-03-31T04:36:45.622Z,102461.82
2019-03-31T04:39:16.609Z,102460.05
2019-03-31T04:41:47.713Z,102469.63
2019-03-31T04:44:18.802Z,102468.26
2019-03-31T04:46:49.770Z,102467.25
2019-03-31T04:49:20.841Z,102468.03
2019-03-31T04:51:51.996Z,102469.24
2019-03-31T04:54:26.125Z,102471.69
2019-03-31T04:56:57.116Z,102473.66
2019-03-31T04:59:28.130Z,102476.00
2019-03-31T05:01:59.115Z,102479.52
2019-03-31T05:04:30.065Z,102480.38
2019-03-31T05:07:01.061Z,102482.51
2019-03-31T05:09:32.360Z,102497.27
2019-03-31T05:12:05.354Z,102493.41
2019-03-31T05:14:36.298Z,102495.70
2019-03-31T05:17:07.594Z,102500.28
2019-03-31T05:19:39.895Z,102502.59
2019-03-31T05:22:11.087Z,102503.64
2019-03-31T05:24:42.426Z,102510.41
2019-03-31T05:27:13.458Z,102520.70
2019-03-31T05:29:44.567Z,102517.91
2019-03-31T05:32:18.443Z,102526.42
2019-03-31T05:34:49.332Z,102530.64
2019-03-31T05:37:26.985Z,102533.06
2019-03-31T05:39:58.196Z,102539.92
2019-03-31T05:42:29.612Z,102542.38
2019-03-31T05:45:00.978Z,102538.35
2019-03-31T05:47:32.234Z,102547.02
2019-03-31T05:50:03.619Z,102547.91
2019-03-31T05:52:34.976Z,102551.39
2019-03-31T05:55:09.029Z,102545.22
2019-03-31T05:57:54.264Z,102552.01
2019-03-31T06:00:55.908Z,102560.48
2019-03-31T06:03:27.155Z,102549.32
2019-03-31T06:06:01.799Z,102557.15
2019-03-31T06:08:33.231Z,102567.81
2019-03-31T06:11:04.633Z,102572.77
2019-03-31T06:13:48.756Z,102575.49
2019-03-31T06:16:23.347Z,102578.30
2019-03-31T06:18:56.822Z,102576.83
2019-03-31T06:21:29.264Z,102580.70
2019-03-31T06:24:01.958Z,102587.56
2019-03-31T06:26:37.089Z,102593.39
2019-03-31T06:29:08.474Z,102599.75
2019-03-31T06:31:41.053Z,102595.25
2019-03-31T06:34:12.374Z,102603.42
2019-03-31T06:36:44.772Z,102602.90
2019-03-31T06:39:16.139Z,102603.26
2019-03-31T06:41:47.395Z,102605.28
2019-03-31T06:44:21.612Z,102614.25
2019-03-31T06:46:52.930Z,102611.42
2019-03-31T06:49:24.371Z,102617.81
2019-03-31T06:51:55.760Z,102617.28
2019-03-31T06:54:30.115Z,102623.21
2019-03-31T06:57:02.837Z,102627.31
2019-03-31T06:59:35.651Z,102635.68
2019-03-31T07:02:07.721Z,102633.06
2019-03-31T07:04:38.669Z,102639.14
2019-03-31T07:07:09.658Z,102629.89
2019-03-31T07:10:01.239Z,102633.42
2019-03-31T07:12:35.504Z,102639.67
2019-03-31T07:15:09.509Z,102647.45
2019-03-31T07:17:40.753Z,102649.11
2019-03-31T07:20:14.083Z,102652.11
2019-03-31T07:22:47.528Z,102659.53
2019-03-31T07:25:18.809Z,102661.26
2019-03-31T07:27:50.047Z,102664.33
2019-03-31T07:30:21.736Z,102659.88
2019-03-31T07:32:52.921Z,102669.66
2019-03-31T07:35:24.036Z,102675.92
2019-03-31T07:37:56.845Z,102679.31
2019-03-31T07:40:28.104Z,102688.91
2019-03-31T07:42:59.636Z,102686.45
2019-03-31T07:45:30.757Z,102689.28
2019-03-31T07:48:01.764Z,102692.72
2019-03-31T07:50:35.534Z,102694.20
2019-03-31T07:53:14.526Z,102689.38
2019-03-31T07:55:45.747Z,102687.16
2019-03-31T07:58:16.840Z,102695.39
2019-03-31T08:00:52.632Z,102697.46
2019-03-31T08:03:23.686Z,102697.77
2019-03-31T08:05:59.170Z,102701.63
2019-03-31T08:08:32.929Z,102706.42
2019-03-31T08:11:08.827Z,102703.34
2019-03-31T08:13:44.667Z,102701.66
2019-03-31T08:16:22.133Z,102707.51
2019-03-31T08:18:53.187Z,102715.66
2019-03-31T08:21:24.413Z,102710.69
2019-03-31T08:23:55.510Z,102713.91
2019-03-31T08:26:29.760Z,102719.45
2019-03-31T08:29:00.859Z,102723.27
2019-03-31T08:31:32.171Z,102723.84
2019-03-31T08:34:03.543Z,102726.72
2019-03-31T08:36:35.379Z,102721.23
2019-03-31T08:39:10.340Z,102721.20
2019-03-31T08:41:49.117Z,102721.63
2019-03-31T08:44:25.399Z,102727.47
2019-03-31T08:46:56.636Z,102734.16
2019-03-31T08:49:29.065Z,102738.48
2019-03-31T08:52:00.151Z,102731.70
2019-03-31T08:54:31.226Z,102740.41
2019-03-31T08:57:02.497Z,102746.61
2019-03-31T08:59:33.574Z,102747.67
2019-03-31T09:02:24.729Z,102752.35
2019-03-31T09:04:55.948Z,102758.11
2019-03-31T09:07:27.036Z,102760.06
2019-03-31T09:10:00.530Z,102755.56
2019-03-31T09:12:31.678Z,102760.27
2019-03-31T09:15:02.754Z,102756.72
2019-03-31T09:17:33.967Z,102762.13
2019-03-31T09:20:06.976Z,102761.43
2019-03-31T09:22:38.110Z,102760.14
2019-03-31T09:25:10.712Z,102765.59
2019-03-31T09:27:41.667Z,102767.69
2019-03-31T09:30:13.400Z,102774.50
2019-03-31T09:32:44.594Z,102774.55
2019-03-31T09:35:15.899Z,102760.63
2019-03-31T09:37:46.957Z,102765.72
2019-03-31T09:40:19.329Z,102756.55
2019-03-31T09:42:53.420Z,102759.73
2019-03-31T09:45:24.419Z,102758.64
2019-03-31T09:47:57.581Z,102761.43
2019-03-31T09:50:28.550Z,102755.13
2019-03-31T09:52:59.581Z,102756.48
2019-03-31T09:55:30.764Z,102760.65
2019-03-31T09:58:01.758Z,102763.89
2019-03-31T10:00:50.815Z,102759.45
2019-03-31T10:03:25.925Z,102764.72
2019-03-31T10:06:10.134Z,102771.52
2019-03-31T10:08:30.425Z,102775.03
2019-03-31T10:11:03.051Z,102776.05
2019-03-31T10:13:35.330Z,102773.38
2019-03-31T10:16:07.657Z,102783.69
2019-03-31T10:18:41.525Z,102775.89
2019-03-31T10:21:12.609Z,102772.78
2019-03-31T10:23:46.523Z,102778.97
2019-03-31T10:26:31.010Z,102780.59
2019-03-31T10:28:51.511Z,102782.46
2019-03-31T10:31:22.493Z,102794.90
2019-03-31T10:33:53.511Z,102790.46
2019-03-31T10:36:24.772Z,102794.63
2019-03-31T10:38:55.833Z,102792.39
2019-03-31T10:41:26.855Z,102796.39
2019-03-31T10:43:58.161Z,102797.61
2019-03-31T10:46:29.255Z,102799.22
2019-03-31T10:49:00.235Z,102803.89
2019-03-31T10:51:33.784Z,102807.55
2019-03-31T10:54:05.088Z,102802.28
2019-03-31T10:56:36.118Z,102805.40
2019-03-31T10:59:09.742Z,102801.72
2019-03-31T11:01:40.358Z,102804.11
2019-03-31T11:04:11.362Z,102787.11
2019-03-31T11:06:42.391Z,102796.02
2019-03-31T11:09:13.422Z,102795.22
2019-03-31T11:11:44.382Z,102798.44
2019-03-31T11:14:15.388Z,102798.62
2019-03-31T11:16:46.420Z,102802.55
2019-03-31T11:19:17.375Z,102799.11
2019-03-31T11:22:07.400Z,102789.63
2019-03-31T11:24:44.574Z,102790.77
2019-03-31T11:27:13.745Z,102807.86
2019-03-31T11:29:44.862Z,102803.95
2019-03-31T11:32:15.914Z,102812.13
2019-03-31T11:34:48.922Z,102804.79
2019-03-31T11:37:21.442Z,102805.83
2019-03-31T11:39:52.414Z,102802.69
2019-03-31T11:42:23.350Z,102804.71
2019-03-31T11:44:54.416Z,102814.72
2019-03-31T11:47:25.554Z,102808.06
2019-03-31T11:49:56.645Z,102804.81
2019-03-31T11:52:27.739Z,102805.22
2019-03-31T11:54:58.705Z,102803.61
2019-03-31T11:57:29.941Z,102798.95
2019-03-31T12:00:00.889Z,102794.49
2019-03-31T12:02:32.046Z,102793.36
2019-03-31T12:05:06.190Z,102789.68
2019-03-31T12:07:46.800Z,102796.31
2019-03-31T12:10:09.183Z,102798.52
2019-03-31T12:12:41.436Z,102801.38
2019-03-31T12:15:15.033Z,102800.88
2019-03-31T12:17:48.841Z,102801.43
2019-03-31T12:20:25.069Z,102796.62
2019-03-31T12:22:57.189Z,102798.96
2019-03-31T12:25:29.480Z,102798.50
2019-03-31T12:28:01.744Z,102797.08
2019-03-31T12:30:36.401Z,102793.80
2019-03-31T12:33:10.883Z,102804.04
2019-03-31T12:35:41.853Z,102800.27
2019-03-31T12:38:12.883Z,102802.89
2019-03-31T12:40:43.953Z,102797.18
2019-03-31T12:43:14.994Z,102797.62
2019-03-31T12:45:46.070Z,102794.91
2019-03-31T12:48:18.614Z,102800.16
2019-03-31T12:50:49.668Z,102802.23
2019-03-31T12:53:20.725Z,102795.57
2019-03-31T12:56:00.399Z,102792.19
2019-03-31T12:58:28.298Z,102790.48
2019-03-31T13:00:59.628Z,102790.38
2019-03-31T13:03:34.234Z,102786.51
2019-03-31T13:06:07.385Z,102797.56
2019-03-31T13:08:40.919Z,102801.16
2019-03-31T13:11:14.732Z,102790.11
2019-03-31T13:13:50.461Z,102794.84
2019-03-31T13:16:27.197Z,102799.67
2019-03-31T13:19:02.220Z,102794.02
2019-03-31T13:21:35.449Z,102790.56
2019-03-31T13:24:10.654Z,102798.06
2019-03-31T13:26:41.833Z,102794.23
2019-03-31T13:29:12.902Z,102794.17
2019-03-31T13:31:44.091Z,102799.39
2019-03-31T13:34:15.212Z,102789.11
2019-03-31T13:36:46.376Z,102796.39
2019-03-31T13:39:17.477Z,102796.59
2019-03-31T13:41:48.785Z,102800.20
2019-03-31T13:44:19.737Z,102795.19
2019-03-31T13:46:52.056Z,102797.61
2019-03-31T13:49:24.439Z,102790.89
2019-03-31T13:51:55.518Z,102785.28
2019-03-31T13:54:26.751Z,102790.02
2019-03-31T13:56:58.272Z,102797.68
2019-03-31T13:59:32.353Z,102781.63
2019-03-31T14:02:03.419Z,102793.27
2019-03-31T14:04:50.956Z,102787.18
2019-03-31T14:07:11.134Z,102789.75
2019-03-31T14:09:43.450Z,102791.51
2019-03-31T14:12:14.700Z,102786.78
2019-03-31T14:14:46.906Z,102784.08
2019-03-31T14:17:19.820Z,102784.45
2019-03-31T14:19:53.721Z,102780.29
2019-03-31T14:22:28.287Z,102781.18
2019-03-31T14:24:59.356Z,102785.05
2019-03-31T14:27:36.247Z,102786.69
2019-03-31T14:30:10.974Z,102782.71
2019-03-31T14:32:41.951Z,102782.59
2019-03-31T14:35:16.983Z,102784.16
2019-03-31T14:37:50.484Z,102784.66
2019-03-31T14:40:21.594Z,102781.38
2019-03-31T14:42:55.183Z,102791.70
2019-03-31T14:45:39.518Z,102790.44
2019-03-31T14:48:10.701Z,102792.02
2019-03-31T14:50:42.371Z,102789.52
2019-03-31T14:53:14.728Z,102795.55
2019-03-31T14:55:45.770Z,102792.95
2019-03-31T14:58:19.251Z,102782.57
2019-03-31T15:00:50.912Z,102783.77
2019-03-31T15:03:22.159Z,102783.38
2019-03-31T15:05:53.351Z,102785.34
2019-03-31T15:08:25.594Z,102798.14
2019-03-31T15:10:56.914Z,102790.03
2019-03-31T15:13:28.238Z,102785.08
2019-03-31T15:15:59.676Z,102804.97
2019-03-31T15:18:34.777Z,102785.70
2019-03-31T15:21:06.437Z,102800.69
2019-03-31T15:23:38.040Z,102785.69
2019-03-31T15:26:09.726Z,102782.13
2019-03-31T15:28:45.593Z,102784.74
2019-03-31T15:31:17.098Z,102787.91
2019-03-31T15:33:49.624Z,102788.91
2019-03-31T15:36:23.372Z,102793.23
2019-03-31T15:39:07.818Z,102791.53
2019-03-31T15:41:27.774Z,102796.00
2019-03-31T15:46:31.754Z,102796.73
2019-03-31T15:49:06.559Z,102800.61
2019-03-31T15:51:40.467Z,102796.00
2019-03-31T15:54:11.908Z,102801.33
2019-03-31T15:56:43.191Z,102806.97
2019-03-31T15:59:14.336Z,102809.05
2019-03-31T16:01:47.026Z,102803.20
2019-03-31T16:04:19.661Z,102806.13
2019-03-31T16:06:50.801Z,102800.44
2019-03-31T16:09:24.303Z,102805.13
2019-03-31T16:11:55.570Z,102816.48
2019-03-31T16:14:26.338Z,102808.72
2019-03-31T16:17:01.510Z,102814.56
2019-03-31T16:19:34.921Z,102810.88
2019-03-31T16:22:05.157Z,102811.23
2019-03-31T16:24:41.551Z,102812.62
2019-03-31T16:27:11.890Z,102808.70
2019-03-31T16:29:42.245Z,102806.98
2019-03-31T16:32:14.912Z,102814.38
2019-03-31T16:34:47.203Z,102806.91
2019-03-31T16:37:17.555Z,102808.46
2019-03-31T16:39:47.749Z,102805.84
2019-03-31T16:42:22.601Z,102806.47
2019-03-31T16:44:58.445Z,102804.05
2019-03-31T16:47:30.349Z,102815.80
2019-03-31T16:50:00.790Z,102818.52
2019-03-31T16:52:31.042Z,102814.95
2019-03-31T16:55:02.508Z,102818.66
2019-03-31T16:57:32.694Z,102818.83
2019-03-31T17:00:03.592Z,102818.56
2019-03-31T17:02:33.835Z,102825.19
2019-03-31T17:05:04.595Z,102829.59
2019-03-31T17:07:35.116Z,102828.90
2019-03-31T17:10:10.437Z,102827.80
2019-03-31T17:12:41.360Z,102830.41
2019-03-31T17:15:11.736Z,102833.91
2019-03-31T17:17:41.984Z,102834.63
2019-03-31T17:20:12.932Z,102830.61
2019-03-31T17:22:43.010Z,102833.77
2019-03-31T17:25:13.413Z,102837.89
2019-03-31T17:27:43.620Z,102830.97
2019-03-31T17:30:14.377Z,102843.41
2019-03-31T17:32:44.613Z,102844.46
2019-03-31T17:35:20.412Z,102848.09
2019-03-31T17:37:52.734Z,102857.35
2019-03-31T17:40:23.039Z,102854.33
2019-03-31T17:42:53.361Z,102850.94
2019-03-31T17:45:23.515Z,102855.73
2019-03-31T17:47:53.670Z,102858.50
2019-03-31T17:50:23.811Z,102864.51
2019-03-31T17:52:54.014Z,102867.80
2019-03-31T17:55:24.398Z,102863.94
2019-03-31T17:57:54.816Z,102873.92
2019-03-31T18:00:25.961Z,102871.75
2019-03-31T18:02:56.498Z,102874.13
2019-03-31T18:05:27.370Z,102875.86
2019-03-31T18:07:57.915Z,102884.31
2019-03-31T18:10:28.856Z,102887.09
2019-03-31T18:12:59.760Z,102891.14
2019-03-31T18:18:08.525Z,102892.38
2019-03-31T18:20:39.030Z,102900.31
2019-03-31T18:23:09.439Z,102895.94
2019-03-31T18:25:39.975Z,102908.03
2019-03-31T18:28:10.613Z,102904.87
2019-03-31T18:30:40.938Z,102908.22
2019-03-31T18:33:11.850Z,102910.94
2019-03-31T18:35:42.607Z,102912.62
2019-03-31T18:38:13.295Z,102910.80
2019-03-31T18:40:43.873Z,102914.14
2019-03-31T18:43:14.371Z,102905.34
2019-03-31T18:45:44.890Z,102923.95
2019-03-31T18:48:15.445Z,102920.25
2019-03-31T18:53:39.026Z,102916.96
2019-03-31T18:56:28.454Z,102925.98
2019-03-31T18:59:16.147Z,102922.34
2019-03-31T19:02:14.394Z,102924.95
2019-03-31T19:05:12.528Z,102923.42
2019-03-31T19:08:03.499Z,102927.08
2019-03-31T19:10:53.028Z,102926.58
2019-03-31T19:13:55.293Z,102924.38
2019-03-31T19:19:17.623Z,102923.30
2019-03-31T19:22:04.923Z,102925.25
2019-03-31T19:24:46.326Z,102923.03
2019-03-31T19:27:35.973Z,102924.71
2019-03-31T19:30:41.625Z,102921.56
2019-03-31T19:33:28.019Z,102922.61
2019-03-31T19:36:12.447Z,102919.09
2019-03-31T19:38:56.631Z,102920.38
2019-03-31T19:41:54.614Z,102920.84
2019-03-31T19:44:43.493Z,102925.69
2019-03-31T19:47:31.840Z,102918.25
2019-03-31T19:50:27.033Z,102924.89
2019-03-31T19:53:27.018Z,102928.42
2019-03-31T19:56:13.214Z,102936.77
2019-03-31T19:59:08.133Z,102938.02
2019-03-31T20:01:58.421Z,102937.64
2019-03-31T20:04:50.963Z,102945.98
2019-03-31T20:07:43.309Z,102937.23
2019-03-31T20:10:42.089Z,102944.83
2019-03-31T20:13:29.969Z,102943.87
2019-03-31T20:18:48.697Z,102941.75
2019-03-31T20:21:41.155Z,102948.17
2019-03-31T20:26:06.465Z,102952.03
2019-03-31T20:28:58.631Z,102946.84
2019-03-31T20:31:53.753Z,102952.61
2019-03-31T20:34:41.547Z,102952.12
2019-03-31T20:37:22.734Z,102956.96
2019-03-31T20:40:10.666Z,102956.58
2019-03-31T20:43:00.625Z,102948.03
2019-03-31T20:45:31.094Z,102959.80
2019-03-31T20:48:01.779Z,102954.25
2019-03-31T20:50:32.309Z,102950.08
2019-03-31T20:53:02.842Z,102952.97
2019-03-31T20:55:33.402Z,102947.39
2019-03-31T20:58:03.923Z,102951.09
2019-03-31T21:00:34.553Z,102957.88
2019-03-31T21:03:07.664Z,102954.89
2019-03-31T21:05:38.177Z,102960.97
2019-03-31T21:08:08.806Z,102954.89
2019-03-31T21:10:39.349Z,102955.89
2019-03-31T21:13:10.006Z,102960.08
2019-03-31T21:15:40.531Z,102960.79
2019-03-31T21:18:11.155Z,102963.88
2019-03-31T21:20:41.648Z,102968.28
2019-03-31T21:23:14.765Z,102962.80
2019-03-31T21:25:45.326Z,102968.59
2019-03-31T21:28:15.812Z,102972.59
2019-03-31T21:30:46.300Z,102971.70
2019-03-31T21:33:16.929Z,102975.77
2019-03-31T21:35:48.711Z,102968.99
2019-03-31T21:38:19.032Z,102967.81
2019-03-31T21:40:49.195Z,102960.62
2019-03-31T21:43:19.398Z,102966.88
2019-03-31T21:48:12.250Z,102956.84
2019-03-31T21:50:42.796Z,102965.50
2019-03-31T21:53:12.949Z,102960.02
2019-03-31T21:55:48.355Z,102964.80
2019-03-31T21:58:19.818Z,102963.39
2019-03-31T22:00:58.112Z,102965.20
2019-03-31T22:03:30.197Z,102964.39
2019-03-31T22:06:02.601Z,102974.56
2019-03-31T22:08:33.011Z,102971.09
2019-03-31T22:11:03.220Z,102968.27
2019-03-31T22:13:33.496Z,102967.67
2019-03-31T22:16:03.937Z,102965.78
2019-03-31T22:18:34.167Z,102966.48
2019-03-31T22:21:04.471Z,102965.96
2019-03-31T22:23:34.934Z,102958.81
2019-03-31T22:26:05.327Z,102963.06
2019-03-31T22:28:35.590Z,102961.87
2019-03-31T22:31:06.855Z,102957.97
2019-03-31T22:33:37.102Z,102964.73
2019-03-31T22:36:22.288Z,102963.73
2019-03-31T22:38:53.408Z,102962.25
2019-03-31T22:41:23.616Z,102967.00
2019-03-31T22:43:53.903Z,102962.92
2019-03-31T22:46:24.033Z,102963.09
2019-03-31T22:48:54.242Z,102964.00
2019-03-31T22:51:24.383Z,102967.66
2019-03-31T22:53:54.790Z,102962.68
2019-03-31T22:56:24.902Z,102971.02
2019-03-31T22:58:55.092Z,102965.61
2019-03-31T23:01:25.632Z,102955.66
2019-03-31T23:03:55.886Z,102964.64
2019-03-31T23:06:26.017Z,102964.53
2019-03-31T23:08:56.292Z,102962.63
2019-03-31T23:11:26.460Z,102964.98
2019-03-31T23:13:56.662Z,102961.30
2019-03-31T23:16:26.799Z,102962.00
2019-03-31T23:18:57.016Z,102948.05
2019-03-31T23:21:27.146Z,102949.63
2019-03-31T23:23:57.274Z,102940.05
2019-03-31T23:26:27.507Z,102939.08
2019-03-31T23:28:57.724Z,102932.50
2019-03-31T23:31:27.946Z,102941.55
2019-03-31T23:33:58.092Z,102935.69
2019-03-31T23:36:28.350Z,102936.00
2019-03-31T23:38:58.771Z,102923.95
2019-03-31T23:41:28.997Z,102929.42
2019-03-31T23:43:59.270Z,102925.83
2019-03-31T23:46:29.510Z,102925.83
2019-03-31T23:49:02.780Z,102928.73
2019-03-31T23:51:32.921Z,102926.15
2019-03-31T23:54:03.099Z,102926.92
2019-03-31T23:56:33.697Z,102932.27
2019-03-31T23:59:03.846Z,102926.00
